Cummaquid, Massachusetts
Current Conditions -  °F | °C
As of 1:56 AM on Saturday 20 Dec 2014 (Local Time) from KHYA Reporting Station
Overcast Overcast  
Wind Chill: 27°   Ceiling: 2700
Heat Index: 33°   Visibility: 10mi
Dew Point: 26°   Wind: 7mph
Humidity: 75%   Direction: 320°NW
Pressure: 30.14"   Gusts: NA
Location:  41.7°N, 70.27°W
Report Text: KHYA 200656Z AUTO 32006KT 10SM OVC027 01/M03 A3014 RMK AO2 SLP207 T00061033
Loading
Personal Weather Stations






























Interactive Weather Map New forecast layout! Learn more

10-Day Weather Forecast

Advertisements
Track Severe Weather on mobile